createdAt,value
2024-03-30T00:00:24.440Z,98892.73
2024-03-30T00:03:13.974Z,98890.73
2024-03-30T00:05:42.068Z,98891.75
2024-03-30T00:08:12.706Z,98894.04
2024-03-30T00:10:45.210Z,98893.84
2024-03-30T00:13:13.635Z,98892.55
2024-03-30T00:15:42.738Z,98892.50
2024-03-30T00:18:13.648Z,98895.34
2024-03-30T00:20:42.685Z,98893.27
2024-03-30T00:23:10.519Z,98889.16
2024-03-30T00:25:39.047Z,98885.17
2024-03-30T00:28:09.030Z,98883.42
2024-03-30T00:30:38.971Z,98880.09
2024-03-30T00:33:06.682Z,98880.05
2024-03-30T00:35:35.170Z,98877.36
2024-03-30T00:38:04.406Z,98877.88
2024-03-30T00:40:32.172Z,98873.58
2024-03-30T00:43:05.425Z,98872.15
2024-03-30T00:45:40.088Z,98879.05
2024-03-30T00:48:08.161Z,98877.77
2024-03-30T00:50:36.559Z,98876.98
2024-03-30T00:53:04.688Z,98876.37
2024-03-30T00:55:32.853Z,98871.20
2024-03-30T00:58:00.545Z,98867.84
2024-03-30T01:00:29.250Z,98859.43
2024-03-30T01:02:57.300Z,98861.11
2024-03-30T01:05:25.162Z,98857.67
2024-03-30T01:07:52.926Z,98863.91
2024-03-30T01:10:22.938Z,98864.80
2024-03-30T01:12:53.060Z,98864.50
2024-03-30T01:15:21.725Z,98866.23
2024-03-30T01:17:50.159Z,98863.40
2024-03-30T01:20:20.422Z,98861.05
2024-03-30T01:22:51.063Z,98869.66
2024-03-30T01:25:19.241Z,98867.89
2024-03-30T01:27:48.824Z,98865.83
2024-03-30T01:30:17.177Z,98871.70
2024-03-30T01:32:48.289Z,98871.98
2024-03-30T01:35:16.421Z,98873.52
2024-03-30T01:37:44.443Z,98870.34
2024-03-30T01:40:15.535Z,98869.27
2024-03-30T01:42:43.226Z,98867.48
2024-03-30T01:45:20.091Z,98865.67
2024-03-30T01:47:47.898Z,98872.02
2024-03-30T01:50:21.440Z,98872.84
2024-03-30T01:52:54.089Z,98872.38
2024-03-30T01:55:22.419Z,98874.67
2024-03-30T01:57:51.904Z,98883.27
2024-03-30T02:00:20.307Z,98885.13
2024-03-30T02:02:51.714Z,98883.74
2024-03-30T02:05:22.612Z,98886.61
2024-03-30T02:07:50.302Z,98886.27
2024-03-30T02:10:18.408Z,98889.48
2024-03-30T02:12:47.546Z,98886.89
2024-03-30T02:15:16.009Z,98886.07
2024-03-30T02:17:45.270Z,98888.55
2024-03-30T02:20:13.748Z,98884.48
2024-03-30T02:22:51.184Z,98885.80
2024-03-30T02:25:23.335Z,98884.49
2024-03-30T02:27:53.722Z,98885.65
2024-03-30T02:30:40.205Z,98885.64
2024-03-30T02:33:07.891Z,98883.96
2024-03-30T02:35:36.014Z,98880.92
2024-03-30T02:38:06.502Z,98871.83
2024-03-30T02:40:34.767Z,98864.14
2024-03-30T02:43:02.550Z,98862.84
2024-03-30T02:45:30.323Z,98862.84
2024-03-30T02:47:58.362Z,98865.33
2024-03-30T02:50:26.063Z,98865.91
2024-03-30T02:52:53.843Z,98867.27
2024-03-30T02:55:21.675Z,98875.36
2024-03-30T02:57:50.623Z,98881.66
2024-03-30T03:00:23.617Z,98883.85
2024-03-30T03:02:54.346Z,98879.38
2024-03-30T03:05:25.105Z,98876.45
2024-03-30T03:07:52.839Z,98869.42
2024-03-30T03:10:21.036Z,98873.33
2024-03-30T03:12:50.302Z,98876.83
2024-03-30T03:15:20.907Z,98885.37
2024-03-30T03:17:52.223Z,98889.57
2024-03-30T03:20:20.100Z,98886.73
2024-03-30T03:22:51.289Z,98881.74
2024-03-30T03:25:19.942Z,98876.00
2024-03-30T03:27:51.671Z,98881.33
2024-03-30T03:30:22.332Z,98880.71
2024-03-30T03:32:50.097Z,98881.31
2024-03-30T03:35:20.966Z,98884.02
2024-03-30T03:37:51.638Z,98881.16
2024-03-30T03:40:19.889Z,98878.08
2024-03-30T03:42:56.615Z,98887.97
2024-03-30T03:45:25.867Z,98884.70
2024-03-30T03:47:58.694Z,98882.74
2024-03-30T03:50:26.387Z,98886.88
2024-03-30T03:52:56.457Z,98892.70
2024-03-30T03:55:26.165Z,98890.23
2024-03-30T03:57:54.381Z,98894.08
2024-03-30T04:00:34.825Z,98897.33
2024-03-30T04:03:02.765Z,98897.63
2024-03-30T04:05:53.292Z,98897.95
2024-03-30T04:08:26.636Z,98897.47
2024-03-30T04:11:01.524Z,98900.17
2024-03-30T04:13:38.369Z,98896.97
2024-03-30T04:16:13.596Z,98895.34
2024-03-30T04:18:47.605Z,98900.70
2024-03-30T04:21:17.024Z,98901.77
2024-03-30T04:23:51.041Z,98907.16
2024-03-30T04:26:23.757Z,98909.34
2024-03-30T04:28:51.588Z,98907.70
2024-03-30T04:31:19.346Z,98909.64
2024-03-30T04:33:48.284Z,98906.80
2024-03-30T04:36:16.050Z,98906.09
2024-03-30T04:38:43.822Z,98905.16
2024-03-30T04:41:14.484Z,98903.08
2024-03-30T04:43:42.215Z,98908.92
2024-03-30T04:46:09.912Z,98911.23
2024-03-30T04:48:40.657Z,98911.98
2024-03-30T04:51:10.093Z,98914.04
2024-03-30T04:53:37.796Z,98910.23
2024-03-30T04:56:09.769Z,98916.09
2024-03-30T04:58:38.677Z,98914.50
2024-03-30T05:01:08.379Z,98913.52
2024-03-30T05:03:37.085Z,98909.56
2024-03-30T05:06:06.153Z,98908.58
2024-03-30T05:08:34.445Z,98910.16
2024-03-30T05:11:02.496Z,98908.23
2024-03-30T05:13:32.580Z,98903.50
2024-03-30T05:16:00.551Z,98897.02
2024-03-30T05:18:28.995Z,98895.26
2024-03-30T05:21:00.877Z,98895.61
2024-03-30T05:23:33.828Z,98892.80
2024-03-30T05:26:06.657Z,98889.80
2024-03-30T05:28:37.104Z,98896.14
2024-03-30T05:31:21.662Z,98894.55
2024-03-30T05:33:49.463Z,98893.22
2024-03-30T05:36:17.872Z,98897.19
2024-03-30T05:38:48.204Z,98896.14
2024-03-30T05:41:16.602Z,98898.65
2024-03-30T05:43:45.442Z,98894.93
2024-03-30T05:46:23.632Z,98890.23
2024-03-30T05:48:54.094Z,98890.95
2024-03-30T05:51:22.566Z,98891.09
2024-03-30T05:53:50.319Z,98891.91
2024-03-30T05:56:21.012Z,98893.11
2024-03-30T05:58:51.450Z,98890.94
2024-03-30T06:01:20.837Z,98897.05
2024-03-30T06:03:55.159Z,98893.42
2024-03-30T06:06:25.394Z,98891.36
2024-03-30T06:08:53.377Z,98890.10
2024-03-30T06:11:25.645Z,98888.65
2024-03-30T06:13:54.018Z,98886.77
2024-03-30T06:16:22.290Z,98879.05
2024-03-30T06:18:50.080Z,98881.05
2024-03-30T06:21:21.257Z,98883.50
2024-03-30T06:23:55.503Z,98888.86
2024-03-30T06:26:25.441Z,98894.48
2024-03-30T06:28:56.399Z,98895.70
2024-03-30T06:31:28.112Z,98895.52
2024-03-30T06:33:59.088Z,98893.21
2024-03-30T06:37:00.003Z,98894.73
2024-03-30T06:39:57.471Z,98889.97
2024-03-30T06:42:45.792Z,98891.77
2024-03-30T06:45:19.179Z,98885.04
2024-03-30T06:47:57.298Z,98884.17
2024-03-30T06:50:26.100Z,98882.05
2024-03-30T06:53:02.960Z,98880.98
2024-03-30T06:55:30.645Z,98880.61
2024-03-30T06:57:58.495Z,98876.54
2024-03-30T07:00:30.991Z,98873.86
2024-03-30T07:03:03.183Z,98870.85
2024-03-30T07:05:35.490Z,98874.44
2024-03-30T07:08:03.494Z,98878.55
2024-03-30T07:10:37.424Z,98879.41
2024-03-30T07:13:08.565Z,98875.68
2024-03-30T07:15:36.706Z,98884.31
2024-03-30T07:18:07.385Z,98888.26
2024-03-30T07:20:35.529Z,98889.34
2024-03-30T07:23:03.461Z,98892.08
2024-03-30T07:25:31.492Z,98889.80
2024-03-30T07:27:59.227Z,98889.18
2024-03-30T07:30:27.525Z,98888.53
2024-03-30T07:32:57.279Z,98887.23
2024-03-30T07:35:25.634Z,98890.16
2024-03-30T07:37:56.700Z,98891.23
2024-03-30T07:40:25.076Z,98886.96
2024-03-30T07:42:53.311Z,98886.55
2024-03-30T07:45:21.313Z,98885.40
2024-03-30T07:47:49.361Z,98883.80
2024-03-30T07:50:17.683Z,98884.48
2024-03-30T07:52:50.945Z,98890.31
2024-03-30T07:55:18.932Z,98889.07
2024-03-30T07:57:46.912Z,98892.91
2024-03-30T08:00:16.086Z,98891.69
2024-03-30T08:02:44.063Z,98889.05
2024-03-30T08:05:11.939Z,98888.27
2024-03-30T08:07:39.645Z,98878.71
2024-03-30T08:10:07.879Z,98872.09
2024-03-30T08:12:35.760Z,98871.70
2024-03-30T08:15:03.871Z,98870.67
2024-03-30T08:17:31.924Z,98875.69
2024-03-30T08:19:59.954Z,98877.27
2024-03-30T08:22:27.862Z,98878.86
2024-03-30T08:24:55.919Z,98884.84
2024-03-30T08:27:25.688Z,98889.43
2024-03-30T08:29:57.950Z,98888.89
2024-03-30T08:32:30.221Z,98892.13
2024-03-30T08:34:58.227Z,98891.49
2024-03-30T08:37:26.367Z,98894.02
2024-03-30T08:39:55.165Z,98895.02
2024-03-30T08:42:24.124Z,98892.55
2024-03-30T08:44:54.848Z,98893.55
2024-03-30T08:47:22.673Z,98894.10
2024-03-30T08:49:50.605Z,98889.68
2024-03-30T08:52:18.529Z,98888.66
2024-03-30T08:54:46.464Z,98892.83
2024-03-30T08:57:14.667Z,98888.63
2024-03-30T08:59:42.470Z,98890.22
2024-03-30T09:02:10.220Z,98889.86
2024-03-30T09:04:40.970Z,98892.48
2024-03-30T09:07:08.663Z,98893.30
2024-03-30T09:09:38.475Z,98890.77
2024-03-30T09:12:06.710Z,98884.59
2024-03-30T09:14:36.156Z,98885.09
2024-03-30T09:17:07.460Z,98885.07
2024-03-30T09:19:35.200Z,98881.04
2024-03-30T09:22:06.303Z,98878.30
2024-03-30T09:24:34.504Z,98877.20
2024-03-30T09:27:04.502Z,98877.48
2024-03-30T09:29:32.620Z,98881.36
2024-03-30T09:32:01.491Z,98882.67
2024-03-30T09:34:38.576Z,98885.12
2024-03-30T09:37:13.883Z,98890.52
2024-03-30T09:39:44.767Z,98886.27
2024-03-30T09:42:34.411Z,98880.52
2024-03-30T09:45:06.052Z,98874.89
2024-03-30T09:47:40.868Z,98872.42
2024-03-30T09:50:12.261Z,98874.23
2024-03-30T09:52:43.659Z,98875.13
2024-03-30T09:55:19.072Z,98876.17
2024-03-30T09:57:51.146Z,98879.97
2024-03-30T10:00:19.803Z,98880.12
2024-03-30T10:02:49.257Z,98877.33
2024-03-30T10:05:32.468Z,98873.36
2024-03-30T10:08:08.319Z,98871.21
2024-03-30T10:10:36.373Z,98866.87
2024-03-30T10:13:13.498Z,98863.02
2024-03-30T10:15:51.926Z,98860.22
2024-03-30T10:18:20.419Z,98860.00
2024-03-30T10:20:51.346Z,98860.92
2024-03-30T10:23:23.255Z,98858.27
2024-03-30T10:25:57.207Z,98860.06
2024-03-30T10:28:25.128Z,98861.98
2024-03-30T10:30:53.071Z,98856.83
2024-03-30T10:33:22.582Z,98863.11
2024-03-30T10:35:50.809Z,98861.26
2024-03-30T10:38:18.600Z,98862.73
2024-03-30T10:40:46.522Z,98857.98
2024-03-30T10:43:14.292Z,98856.81
2024-03-30T10:45:42.176Z,98856.66
2024-03-30T10:48:09.993Z,98852.95
2024-03-30T10:50:38.710Z,98840.70
2024-03-30T10:53:07.273Z,98844.38
2024-03-30T10:55:38.684Z,98843.45
2024-03-30T10:58:06.691Z,98844.49
2024-03-30T11:00:34.949Z,98837.36
2024-03-30T11:03:04.864Z,98836.67
2024-03-30T11:05:35.908Z,98840.33
2024-03-30T11:08:04.209Z,98841.35
2024-03-30T11:10:32.170Z,98839.05
2024-03-30T11:13:02.177Z,98834.20
2024-03-30T11:15:38.405Z,98831.38
2024-03-30T11:18:13.731Z,98831.83
2024-03-30T11:20:45.099Z,98828.02
2024-03-30T11:23:23.938Z,98827.21
2024-03-30T11:25:58.889Z,98826.66
2024-03-30T11:28:37.833Z,98826.11
2024-03-30T11:31:08.960Z,98813.05
2024-03-30T11:33:41.007Z,98816.02
2024-03-30T11:36:15.317Z,98813.66
2024-03-30T11:38:58.336Z,98810.73
2024-03-30T11:41:26.347Z,98810.45
2024-03-30T11:44:14.823Z,98809.76
2024-03-30T11:46:46.500Z,98804.88
2024-03-30T11:49:16.806Z,98804.73
2024-03-30T11:51:44.813Z,98801.73
2024-03-30T11:54:23.133Z,98797.00
2024-03-30T11:57:23.318Z,98796.05
2024-03-30T11:59:57.246Z,98790.02
2024-03-30T12:02:29.569Z,98789.42
2024-03-30T12:05:08.393Z,98782.42
2024-03-30T12:07:37.119Z,98775.66
2024-03-30T12:10:09.113Z,98779.89
2024-03-30T12:12:38.627Z,98777.91
2024-03-30T12:15:15.079Z,98778.72
2024-03-30T12:17:49.017Z,98771.21
2024-03-30T12:20:16.938Z,98765.55
2024-03-30T12:22:45.333Z,98759.13
2024-03-30T12:25:13.956Z,98756.31
2024-03-30T12:27:44.672Z,98755.91
2024-03-30T12:30:12.987Z,98751.61
2024-03-30T12:32:42.878Z,98745.63
2024-03-30T12:35:11.492Z,98742.94
2024-03-30T12:37:42.192Z,98740.18
2024-03-30T12:40:12.725Z,98728.18
2024-03-30T12:42:50.030Z,98715.23
2024-03-30T12:45:20.402Z,98710.49
2024-03-30T12:47:50.350Z,98702.85
2024-03-30T12:50:18.551Z,98702.13
2024-03-30T12:52:50.848Z,98696.98
2024-03-30T12:55:18.898Z,98703.70
2024-03-30T12:57:50.968Z,98698.78
2024-03-30T13:00:19.455Z,98696.90
2024-03-30T13:03:01.313Z,98693.91
2024-03-30T13:05:32.252Z,98690.05
2024-03-30T13:08:05.148Z,98690.08
2024-03-30T13:10:35.874Z,98686.86
2024-03-30T13:13:06.782Z,98684.43
2024-03-30T13:15:35.695Z,98683.61
2024-03-30T13:18:11.068Z,98686.69
2024-03-30T13:20:42.237Z,98690.89
2024-03-30T13:23:12.172Z,98689.53
2024-03-30T13:25:45.909Z,98689.28
2024-03-30T13:28:16.367Z,98692.95
2024-03-30T13:30:47.399Z,98687.59
2024-03-30T13:33:15.445Z,98682.15
2024-03-30T13:35:46.703Z,98682.03
2024-03-30T13:38:15.374Z,98679.84
2024-03-30T13:40:47.700Z,98677.74
2024-03-30T13:43:24.274Z,98677.02
2024-03-30T13:45:59.837Z,98678.92
2024-03-30T13:48:29.075Z,98679.80
2024-03-30T13:51:00.994Z,98675.23
2024-03-30T13:53:33.194Z,98670.40
2024-03-30T13:56:13.363Z,98670.11
2024-03-30T13:58:44.587Z,98663.73
2024-03-30T14:01:13.918Z,98662.05
2024-03-30T14:03:41.649Z,98658.71
2024-03-30T14:06:13.119Z,98658.44
2024-03-30T14:08:41.207Z,98652.34
2024-03-30T14:11:13.737Z,98655.10
2024-03-30T14:13:46.859Z,98653.12
2024-03-30T14:16:22.772Z,98646.02
2024-03-30T14:19:04.123Z,98648.81
2024-03-30T14:21:46.419Z,98646.95
2024-03-30T14:24:17.734Z,98647.21
2024-03-30T14:27:00.867Z,98641.59
2024-03-30T14:29:40.084Z,98639.98
2024-03-30T14:32:09.607Z,98631.88
2024-03-30T14:34:37.929Z,98637.14
2024-03-30T14:37:09.820Z,98637.70
2024-03-30T14:39:38.244Z,98635.49
2024-03-30T14:42:06.332Z,98631.05
2024-03-30T14:44:36.611Z,98628.81
2024-03-30T14:47:04.447Z,98622.04
2024-03-30T14:49:32.420Z,98615.84
2024-03-30T14:52:03.448Z,98609.62
2024-03-30T14:54:31.408Z,98611.05
2024-03-30T14:56:59.568Z,98603.06
2024-03-30T14:59:27.394Z,98597.23
2024-03-30T15:01:55.435Z,98594.55
2024-03-30T15:04:23.258Z,98596.54
2024-03-30T15:06:51.059Z,98595.00
2024-03-30T15:09:21.686Z,98600.38
2024-03-30T15:11:52.855Z,98595.30
2024-03-30T15:14:21.931Z,98593.70
2024-03-30T15:16:49.886Z,98595.23
2024-03-30T15:19:17.630Z,98584.48
2024-03-30T15:21:48.311Z,98585.36
2024-03-30T15:24:16.309Z,98581.05
2024-03-30T15:26:44.098Z,98580.54
2024-03-30T15:29:14.443Z,98580.39
2024-03-30T15:32:01.070Z,98585.48
2024-03-30T15:34:28.952Z,98584.58
2024-03-30T15:36:57.241Z,98588.38
2024-03-30T15:39:26.912Z,98592.27
2024-03-30T15:41:55.709Z,98592.34
2024-03-30T15:44:26.787Z,98593.84
2024-03-30T15:46:54.510Z,98596.44
2024-03-30T15:49:22.370Z,98597.49
2024-03-30T15:51:51.124Z,98599.45
2024-03-30T15:54:19.382Z,98597.14
2024-03-30T15:56:47.947Z,98600.75
2024-03-30T15:59:15.685Z,98601.52
2024-03-30T16:01:45.418Z,98602.56
2024-03-30T16:04:13.175Z,98599.48
2024-03-30T16:06:42.811Z,98599.81
2024-03-30T16:09:13.220Z,98601.20
2024-03-30T16:11:42.136Z,98603.88
2024-03-30T16:14:13.119Z,98605.59
2024-03-30T16:17:21.294Z,98606.89
2024-03-30T16:19:49.058Z,98609.40
2024-03-30T16:22:16.850Z,98608.84
2024-03-30T16:24:44.611Z,98610.02
2024-03-30T16:27:12.414Z,98610.71
2024-03-30T16:29:41.592Z,98606.80
2024-03-30T16:32:09.341Z,98605.68
2024-03-30T16:34:37.799Z,98609.24
2024-03-30T16:37:05.667Z,98609.45
2024-03-30T16:39:33.369Z,98616.52
2024-03-30T16:42:01.247Z,98624.67
2024-03-30T16:44:29.874Z,98626.67
2024-03-30T16:46:57.880Z,98626.88
2024-03-30T16:49:25.774Z,98627.54
2024-03-30T16:51:56.577Z,98631.96
2024-03-30T16:54:24.527Z,98633.90
2024-03-30T16:56:52.214Z,98635.70
2024-03-30T16:59:19.916Z,98635.70
2024-03-30T17:01:47.977Z,98637.62
2024-03-30T17:04:18.677Z,98641.98
2024-03-30T17:06:46.454Z,98638.84
2024-03-30T17:09:14.516Z,98634.21
2024-03-30T17:11:43.447Z,98636.84
2024-03-30T17:14:15.940Z,98648.16
2024-03-30T17:16:44.080Z,98648.05
2024-03-30T17:19:12.782Z,98648.52
2024-03-30T17:21:40.562Z,98648.56
2024-03-30T17:24:08.673Z,98646.11
2024-03-30T17:26:39.618Z,98644.20
2024-03-30T17:29:09.068Z,98654.03
2024-03-30T17:31:37.382Z,98654.05
2024-03-30T17:34:05.256Z,98659.86
2024-03-30T17:36:33.247Z,98666.17
2024-03-30T17:39:01.074Z,98669.30
2024-03-30T17:41:30.400Z,98676.85
2024-03-30T17:43:58.909Z,98679.02
2024-03-30T17:46:27.870Z,98680.92
2024-03-30T17:48:56.160Z,98685.58
2024-03-30T17:51:25.357Z,98689.86
2024-03-30T17:53:53.904Z,98690.10
2024-03-30T17:56:22.092Z,98693.73
2024-03-30T17:58:50.688Z,98697.52
2024-03-30T18:01:21.921Z,98704.20
2024-03-30T18:03:54.198Z,98705.27
2024-03-30T18:06:30.000Z,98710.08
2024-03-30T18:08:58.528Z,98712.02
2024-03-30T18:11:29.796Z,98715.23
2024-03-30T18:13:59.467Z,98715.54
2024-03-30T18:16:27.216Z,98707.81
2024-03-30T18:18:55.046Z,98709.36
2024-03-30T18:21:23.135Z,98711.31
2024-03-30T18:23:53.985Z,98714.63
2024-03-30T18:26:22.456Z,98718.95
2024-03-30T18:28:50.350Z,98715.35
2024-03-30T18:31:20.685Z,98718.36
2024-03-30T18:33:51.100Z,98717.59
2024-03-30T18:36:21.196Z,98716.34
2024-03-30T18:38:49.466Z,98715.73
2024-03-30T18:41:18.274Z,98714.06
2024-03-30T18:43:46.134Z,98714.41
2024-03-30T18:46:16.574Z,98715.57
2024-03-30T18:48:45.070Z,98708.64
2024-03-30T18:51:14.880Z,98699.52
2024-03-30T18:53:43.058Z,98697.46
2024-03-30T18:56:10.931Z,98696.36
2024-03-30T18:58:45.656Z,98693.24
2024-03-30T19:01:15.572Z,98691.36
2024-03-30T19:03:44.045Z,98692.37
2024-03-30T19:06:11.967Z,98684.49
2024-03-30T19:08:40.174Z,98686.08
2024-03-30T19:11:08.270Z,98683.57
2024-03-30T19:13:36.100Z,98684.90
2024-03-30T19:16:04.431Z,98684.52
2024-03-30T19:18:33.130Z,98684.23
2024-03-30T19:21:04.210Z,98684.27
2024-03-30T19:23:32.748Z,98676.33
2024-03-30T19:26:03.840Z,98676.34
2024-03-30T19:28:32.210Z,98675.52
2024-03-30T19:30:59.964Z,98673.00
2024-03-30T19:33:27.720Z,98672.89
2024-03-30T19:36:04.041Z,98670.70
2024-03-30T19:38:34.595Z,98668.85
2024-03-30T19:41:14.492Z,98665.93
2024-03-30T19:43:44.831Z,98660.98
2024-03-30T19:46:13.172Z,98664.30
2024-03-30T19:48:41.147Z,98662.99
2024-03-30T19:51:09.319Z,98663.77
2024-03-30T19:53:37.189Z,98664.31
2024-03-30T19:56:08.371Z,98663.71
2024-03-30T19:58:36.120Z,98662.38
2024-03-30T20:01:07.066Z,98662.47
2024-03-30T20:03:38.326Z,98660.95
2024-03-30T20:06:07.180Z,98665.45
2024-03-30T20:08:36.278Z,98667.95
2024-03-30T20:11:04.766Z,98670.45
2024-03-30T20:13:32.498Z,98667.19
2024-03-30T20:16:03.134Z,98663.49
2024-03-30T20:18:30.749Z,98661.50
2024-03-30T20:20:58.944Z,98655.86
2024-03-30T20:23:27.518Z,98659.75
2024-03-30T20:26:02.928Z,98654.27
2024-03-30T20:28:30.824Z,98649.06
2024-03-30T20:31:00.252Z,98645.50
2024-03-30T20:33:32.313Z,98646.49
2024-03-30T20:36:01.813Z,98647.54
2024-03-30T20:38:30.649Z,98648.64
2024-03-30T20:41:09.191Z,98645.75
2024-03-30T20:43:41.078Z,98644.20
2024-03-30T20:46:13.042Z,98640.05
2024-03-30T20:48:45.644Z,98642.90
2024-03-30T20:51:13.848Z,98638.35
2024-03-30T20:53:42.490Z,98637.16
2024-03-30T20:56:10.277Z,98638.87
2024-03-30T20:58:46.412Z,98634.44
2024-03-30T21:01:14.305Z,98636.15
2024-03-30T21:03:42.130Z,98636.55
2024-03-30T21:06:11.087Z,98640.25
2024-03-30T21:08:38.949Z,98632.00
2024-03-30T21:11:06.776Z,98629.76
2024-03-30T21:13:34.621Z,98628.94
2024-03-30T21:16:02.884Z,98632.83
2024-03-30T21:18:31.143Z,98628.73
2024-03-30T21:21:00.781Z,98628.21
2024-03-30T21:23:28.890Z,98630.10
2024-03-30T21:26:05.301Z,98628.23
2024-03-30T21:28:35.427Z,98622.10
2024-03-30T21:31:03.721Z,98619.54
2024-03-30T21:33:33.529Z,98621.48
2024-03-30T21:36:01.404Z,98622.09
2024-03-30T21:38:29.267Z,98623.22
2024-03-30T21:40:57.062Z,98626.98
2024-03-30T21:43:25.110Z,98629.27
2024-03-30T21:45:54.243Z,98628.83
2024-03-30T21:48:21.993Z,98625.36
2024-03-30T21:50:57.199Z,98625.24
2024-03-30T21:53:25.849Z,98626.88
2024-03-30T21:55:55.814Z,98625.34
2024-03-30T21:58:23.659Z,98630.24
2024-03-30T22:00:55.426Z,98628.93
2024-03-30T22:03:23.327Z,98630.07
2024-03-30T22:05:58.998Z,98626.77
2024-03-30T22:08:26.847Z,98628.70
2024-03-30T22:10:58.002Z,98628.70
2024-03-30T22:13:28.417Z,98634.66
2024-03-30T22:16:06.398Z,98636.14
2024-03-30T22:18:40.652Z,98639.00
2024-03-30T22:21:08.362Z,98637.36
2024-03-30T22:23:36.105Z,98642.59
2024-03-30T22:26:06.131Z,98643.14
2024-03-30T22:28:53.873Z,98647.44
2024-03-30T22:31:21.627Z,98649.34
2024-03-30T22:33:52.814Z,98648.60
2024-03-30T22:36:23.859Z,98650.42
2024-03-30T22:38:52.199Z,98650.83
2024-03-30T22:41:19.930Z,98646.98
2024-03-30T22:43:48.440Z,98645.93
2024-03-30T22:46:16.123Z,98643.58
2024-03-30T22:48:45.145Z,98641.96
2024-03-30T22:51:15.587Z,98642.06
2024-03-30T22:53:43.288Z,98640.84
2024-03-30T22:56:11.486Z,98640.83
2024-03-30T22:58:42.361Z,98644.38
2024-03-30T23:01:11.072Z,98645.25
2024-03-30T23:03:38.821Z,98640.04
2024-03-30T23:06:07.014Z,98645.80
2024-03-30T23:08:35.440Z,98651.73
2024-03-30T23:11:05.257Z,98660.23
2024-03-30T23:13:34.492Z,98661.41
2024-03-30T23:16:09.357Z,98664.27
2024-03-30T23:18:38.679Z,98665.23
2024-03-30T23:21:06.659Z,98661.38
2024-03-30T23:23:34.873Z,98657.09
2024-03-30T23:26:02.689Z,98655.52
2024-03-30T23:28:30.862Z,98655.64
2024-03-30T23:30:58.656Z,98654.58
2024-03-30T23:33:26.458Z,98653.42
2024-03-30T23:35:57.815Z,98655.50
2024-03-30T23:38:28.651Z,98649.53
2024-03-30T23:40:57.515Z,98644.20
2024-03-30T23:43:30.682Z,98644.02
2024-03-30T23:45:58.405Z,98646.54
2024-03-30T23:48:26.520Z,98643.16
2024-03-30T23:50:55.340Z,98643.40
2024-03-30T23:53:23.201Z,98646.39
2024-03-30T23:55:51.122Z,98650.54
2024-03-30T23:58:18.877Z,98644.38
